Terminal Aerodrome Forecast
Issued by NWS Boston, MA

Home | Current Version | Previous Version | Text Only | Print | Product List | Glossary On
Versions: 1 2 3 4 5 6 7 8 9 10 11 12 13 14 15 16 17 18 19 20 21 22 23 24 25 26 27 28 29 30 31 32 33 34 35 36 37 38 39 40 41 42 43 44 45 46 47 48
000
FTUS41 KBOX 062334
TAFBDL
TAF
KBDL 062334Z 0700/0806 09006KT 4SM -SHRA BKN015
     FM070400 05005KT 5SM BR VCSH OVC010
     FM070800 02005KT 3SM BR OVC008
     FM071500 04005KT P6SM VCSH BKN010
     FM072000 06005KT P6SM BKN010
     FM072300 13004KT P6SM BKN010=

USA.gov is the U.S. government's official web portal to all federal, state and local government web resources and services.